»·PEaware :: SWA152 KLAS-KSEA

SWA152 :: KLAS-KSEA

FLIGHT INFORMATION

Flight Status: Arrived
Operator:
Southwest Airlines
More flights by this operator :: More flights under this callsign
Pilot: Steve F. (26981)
Aircraft: BOEING 737-800
(B738)
More flights by this aircraft type
Origin: KLAS McCarran Intl
United States
Destination: KSEA Seattle-Tacoma Intl
United States
More flights between these airports :: More routes between these airports
Route: SHEAD1 OAL LOMIA LKV HAWKZ7
File this flight plan on PilotEdge
Remarks:
Altitude:
(Current/Filed)
38,000ft
Speed:
(Current/Filed)
430kts
Departed: 13-Mar-20 05:15 PM
Arrived: 13-Mar-20 07:15 PM
Distance/Time
Traveled:
752nm/2:00
Distance/Time
To Go:
Arrived

Flight Plot

Page will automatically refresh every two minutes.

Flight plan parsing failed; only flown route is shown


Map Options




Map Legend


Flown Route
Filed Route
Departure Airport
Arrival Airport
Navaid (VOR, NDB)
Fix

Horizontal Profiles

Position Reports

Time Latitude Longitude Heading Altitude Ground
Speed
13-Mar-20 16:53 36.082120 -115.151156 34 2189ft 0kts
13-Mar-20 16:54 36.082120 -115.151156 34 2189ft 0kts
13-Mar-20 16:55 36.082120 -115.151156 34 2189ft 0kts
13-Mar-20 16:56 36.082120 -115.151156 34 2189ft 0kts
13-Mar-20 16:57 36.082120 -115.151156 34 2189ft 0kts
13-Mar-20 16:58 36.082120 -115.151156 34 2189ft 0kts
13-Mar-20 16:59 36.082120 -115.151156 34 2189ft 0kts
13-Mar-20 17:00 36.082120 -115.151156 34 2189ft 0kts
13-Mar-20 17:01 36.082120 -115.151156 34 2189ft 0kts
13-Mar-20 17:02 36.082120 -115.151156 34 2188ft 0kts
13-Mar-20 17:03 36.082120 -115.151156 34 2188ft 0kts
13-Mar-20 17:04 36.082120 -115.151156 34 2188ft 0kts
13-Mar-20 17:05 36.081787 -115.151432 33 2188ft 0kts
13-Mar-20 17:06 36.081788 -115.151431 33 2188ft 0kts
13-Mar-20 17:07 36.081789 -115.151430 33 2188ft 0kts
13-Mar-20 17:08 36.081790 -115.151429 33 2188ft 0kts
13-Mar-20 17:09 36.080748 -115.150389 152 2188ft 13kts
13-Mar-20 17:10 36.078349 -115.145105 92 2188ft 25kts
13-Mar-20 17:11 36.078243 -115.135004 89 2188ft 30kts
13-Mar-20 17:12 36.078227 -115.124671 90 2188ft 28kts
13-Mar-20 17:13 36.076353 -115.121855 269 2188ft 10kts
13-Mar-20 17:14 36.076545 -115.159300 269 2658ft 189kts
13-Mar-20 17:15 36.074033 -115.235245 242 5074ft 251kts
13-Mar-20 17:16 36.012465 -115.283105 200 7938ft 271kts
13-Mar-20 17:17 35.946846 -115.330572 223 10881ft 283kts
13-Mar-20 17:18 35.891110 -115.412950 252 12334ft 346kts
13-Mar-20 17:19 35.888193 -115.534220 269 15199ft 360kts
13-Mar-20 17:20 35.890662 -115.658857 269 17955ft 369kts
13-Mar-20 17:21 35.892968 -115.787894 269 20238ft 384kts
13-Mar-20 17:22 35.895347 -115.921958 274 22244ft 399kts
13-Mar-20 17:23 35.956521 -116.038638 313 23915ft 425kts
13-Mar-20 17:24 36.042960 -116.140140 314 25622ft 434kts
13-Mar-20 17:26 36.131811 -116.243284 314 27151ft 441kts
13-Mar-20 17:27 36.222662 -116.348165 314 28480ft 449kts
13-Mar-20 17:28 36.313430 -116.453460 314 30107ft 445kts
13-Mar-20 17:29 36.403258 -116.558434 313 31545ft 443kts
13-Mar-20 17:30 36.492764 -116.663146 313 32867ft 441kts
13-Mar-20 17:31 36.585678 -116.763467 322 34120ft 445kts
13-Mar-20 17:32 36.691284 -116.844579 324 35172ft 448kts
13-Mar-20 17:33 36.797647 -116.925724 323 36171ft 449kts
13-Mar-20 17:34 36.904389 -117.007185 323 37082ft 450kts
13-Mar-20 17:35 37.011372 -117.089038 323 37947ft 450kts
13-Mar-20 17:36 37.118416 -117.171135 323 37949ft 448kts
13-Mar-20 17:37 37.224678 -117.253267 323 37948ft 449kts
13-Mar-20 17:38 37.331905 -117.333747 327 37947ft 452kts
13-Mar-20 17:39 37.444029 -117.405153 327 37948ft 451kts
13-Mar-20 17:40 37.555959 -117.477631 327 37949ft 451kts
13-Mar-20 17:41 37.667442 -117.550076 327 37947ft 451kts
13-Mar-20 17:42 37.779334 -117.623017 327 37949ft 451kts
13-Mar-20 17:43 37.890401 -117.695983 327 37951ft 450kts
13-Mar-20 17:44 38.000599 -117.771063 321 37951ft 446kts
13-Mar-20 17:44 38.080304 -117.852686 314 37948ft 441kts
13-Mar-20 17:46 38.189415 -117.971048 314 37945ft 441kts
13-Mar-20 17:47 38.282789 -118.072297 315 37944ft 442kts
13-Mar-20 17:47 38.360858 -118.156784 314 37949ft 442kts
13-Mar-20 17:48 38.454439 -118.258606 314 37960ft 441kts
13-Mar-20 17:50 38.563300 -118.377608 314 37951ft 441kts
13-Mar-20 17:50 38.640814 -118.462675 314 37943ft 441kts
13-Mar-20 17:51 38.734022 -118.565296 314 37943ft 441kts
13-Mar-20 17:52 38.827025 -118.668071 314 37942ft 441kts
13-Mar-20 17:53 38.919945 -118.771114 314 37944ft 441kts
13-Mar-20 17:54 39.012925 -118.874340 314 37951ft 441kts
13-Mar-20 17:55 39.105553 -118.977860 313 37949ft 441kts
13-Mar-20 17:56 39.198535 -119.080812 319 37949ft 444kts
13-Mar-20 17:57 39.313814 -119.144282 337 37949ft 457kts
13-Mar-20 17:58 39.435271 -119.194186 337 37948ft 457kts
13-Mar-20 17:59 39.556495 -119.244039 337 37943ft 457kts
13-Mar-20 18:00 39.677827 -119.293821 337 37944ft 457kts
13-Mar-20 18:01 39.799026 -119.343817 337 37944ft 457kts
13-Mar-20 18:02 39.920319 -119.394082 337 37947ft 457kts
13-Mar-20 18:03 40.041820 -119.444624 337 37950ft 457kts
13-Mar-20 18:04 40.162849 -119.495164 337 37956ft 457kts
13-Mar-20 18:05 40.283865 -119.545888 337 37960ft 457kts
13-Mar-20 18:06 40.404866 -119.596786 336 37958ft 457kts
13-Mar-20 18:07 40.526162 -119.648008 336 37973ft 457kts
13-Mar-20 18:08 40.647301 -119.699359 336 37977ft 457kts
13-Mar-20 18:09 40.768668 -119.751004 336 37979ft 457kts
13-Mar-20 18:10 40.889456 -119.802612 336 37980ft 457kts
13-Mar-20 18:11 41.010542 -119.854537 336 37983ft 457kts
13-Mar-20 18:12 41.131430 -119.906576 336 37984ft 457kts
13-Mar-20 18:13 41.252574 -119.958939 336 37986ft 456kts
13-Mar-20 18:14 41.373174 -120.011266 336 37986ft 456kts
13-Mar-20 18:15 41.494070 -120.063922 336 37988ft 457kts
13-Mar-20 18:16 41.614779 -120.116696 336 37989ft 457kts
13-Mar-20 18:17 41.735571 -120.169745 336 37989ft 457kts
13-Mar-20 18:18 41.856165 -120.222903 336 37989ft 457kts
13-Mar-20 18:19 41.976871 -120.276319 336 37989ft 457kts
13-Mar-20 18:20 42.097608 -120.329964 336 37989ft 456kts
13-Mar-20 18:21 42.218320 -120.383717 336 37990ft 456kts
13-Mar-20 18:22 42.338743 -120.437637 335 37990ft 456kts
13-Mar-20 18:23 42.458967 -120.491806 336 37991ft 455kts
13-Mar-20 18:24 42.575942 -120.555813 329 37995ft 451kts
13-Mar-20 18:25 42.690183 -120.626189 330 37995ft 450kts
13-Mar-20 18:26 42.804205 -120.696076 330 37998ft 450kts
13-Mar-20 18:27 42.918521 -120.765697 330 38001ft 450kts
13-Mar-20 18:28 43.032841 -120.835745 330 38005ft 450kts
13-Mar-20 18:29 43.146992 -120.906026 330 38010ft 450kts
13-Mar-20 18:30 43.261082 -120.976564 330 38016ft 450kts
13-Mar-20 18:31 43.374933 -121.047265 330 38022ft 449kts
13-Mar-20 18:32 43.488809 -121.118268 330 38028ft 449kts
13-Mar-20 18:33 43.602852 -121.189478 330 38029ft 449kts
13-Mar-20 18:34 43.716341 -121.260991 330 38028ft 448kts
13-Mar-20 18:35 43.829941 -121.332757 330 38034ft 448kts
13-Mar-20 18:36 43.942951 -121.404559 330 38037ft 447kts
13-Mar-20 18:37 44.056224 -121.476899 330 38026ft 448kts
13-Mar-20 18:38 44.169855 -121.549371 330 38029ft 448kts
13-Mar-20 18:39 44.282856 -121.621777 330 38039ft 447kts
13-Mar-20 18:40 44.396028 -121.694713 330 38063ft 448kts
13-Mar-20 18:41 44.509062 -121.767907 330 38048ft 448kts
13-Mar-20 18:42 44.622022 -121.841379 330 38063ft 447kts
13-Mar-20 18:43 44.734995 -121.915167 330 38077ft 447kts
13-Mar-20 18:44 44.847719 -121.989144 330 38088ft 448kts
13-Mar-20 18:45 44.960613 -122.063546 330 38094ft 447kts
13-Mar-20 18:46 45.073039 -122.137736 330 38101ft 446kts
13-Mar-20 18:47 45.185907 -122.212872 330 38100ft 447kts
13-Mar-20 18:48 45.298605 -122.288228 329 36190ft 445kts
13-Mar-20 18:49 45.410369 -122.363232 328 34190ft 443kts
13-Mar-20 18:50 45.522071 -122.438215 327 32195ft 447kts
13-Mar-20 18:51 45.635466 -122.515011 326 30191ft 453kts
13-Mar-20 18:52 45.751317 -122.588329 334 28196ft 465kts
13-Mar-20 18:53 45.878442 -122.624114 342 26189ft 458kts
13-Mar-20 18:54 46.001940 -122.654433 342 24188ft 443kts
13-Mar-20 18:55 46.121464 -122.683487 345 21963ft 431kts
13-Mar-20 18:56 46.238110 -122.705933 346 19466ft 417kts
13-Mar-20 18:57 46.352252 -122.725266 352 16957ft 408kts
13-Mar-20 18:58 46.463049 -122.728029 355 14872ft 388kts
13-Mar-20 18:59 46.568036 -122.731234 356 13022ft 365kts
13-Mar-20 19:00 46.663184 -122.734572 356 12531ft 318kts
13-Mar-20 19:01 46.749906 -122.737704 356 12536ft 314kts
13-Mar-20 19:02 46.829047 -122.688470 37 12532ft 313kts
13-Mar-20 19:03 46.890067 -122.605815 41 11943ft 290kts
13-Mar-20 19:04 46.946441 -122.523051 44 10456ft 284kts
13-Mar-20 19:05 47.005128 -122.448467 30 8798ft 276kts
13-Mar-20 19:06 47.070473 -122.394110 29 7484ft 256kts
13-Mar-20 19:07 47.130395 -122.343359 29 6449ft 244kts
13-Mar-20 19:08 47.188341 -122.308378 3 5631ft 218kts
13-Mar-20 19:09 47.248756 -122.309754 0 3801ft 216kts
13-Mar-20 19:10 47.308101 -122.309099 359 2197ft 194kts
13-Mar-20 19:11 47.353459 -122.308689 359 1852ft 150kts
13-Mar-20 19:12 47.390644 -122.308365 358 1188ft 147kts
13-Mar-20 19:13 47.418444 -122.308239 359 673ft 138kts
13-Mar-20 19:14 47.444304 -122.307893 1 441ft 24kts
13-Mar-20 19:15 47.445459 -122.306178 174 441ft 0kts
13-Mar-20 19:16 47.441195 -122.306110 167 441ft 21kts
13-Mar-20 19:17 47.441171 -122.300979 38 441ft 5kts
13-Mar-20 19:18 47.441215 -122.300927 38 441ft 0kts
13-Mar-20 19:19 47.441215 -122.300927 38 441ft 0kts
13-Mar-20 19:20 47.441215 -122.300927 38 441ft 0kts

Navigation Log

Ident Type
Flight plan parsing failed, navigation log unavailable